Allisonia, Virginia
Current Conditions -  °F | °C
As of 11:55 PM on Sunday 21 Dec 2014 (Local Time) from KPSK Reporting Station
Overcast Overcast  
Wind Chill: 33°   Ceiling: 1800
Heat Index: 38°   Visibility: 10mi
Dew Point: 34°   Wind: 8mph
Humidity: 84%   Direction: 110°ESE
Pressure: 30.2"   Gusts: NA
Location:  36.9752°N, 80.6434°W
Report Text: KPSK 220455Z AUTO 11007KT 10SM OVC018 04/01 A3020 RMK AO2 T00360011
Loading
Personal Weather Stations






























Interactive Weather Map New forecast layout! Learn more

10-Day Weather Forecast

Advertisements
Track Severe Weather on mobile